createdAt,value
2018-11-10T00:00:17.569Z,15.40
2018-11-10T00:02:46.354Z,15.80
2018-11-10T00:05:15.210Z,15.77
2018-11-10T00:07:43.792Z,15.10
2018-11-10T00:10:12.336Z,15.80
2018-11-10T00:12:40.810Z,16.20
2018-11-10T00:15:11.206Z,15.30
2018-11-10T00:17:39.626Z,15.90
2018-11-10T00:20:08.133Z,16.83
2018-11-10T00:22:37.155Z,15.47
2018-11-10T00:25:07.473Z,17.27
2018-11-10T00:27:35.942Z,17.57
2018-11-10T00:30:04.594Z,17.13
2018-11-10T00:32:32.992Z,18.33
2018-11-10T00:35:01.466Z,17.87
2018-11-10T00:37:29.888Z,17.40
2018-11-10T00:39:58.308Z,17.40
2018-11-10T00:42:26.687Z,17.67
2018-11-10T00:44:55.157Z,17.73
2018-11-10T00:47:23.612Z,17.93
2018-11-10T00:49:52.042Z,17.07
2018-11-10T00:52:20.459Z,17.43
2018-11-10T00:54:48.893Z,17.30
2018-11-10T00:57:17.360Z,16.27
2018-11-10T00:59:45.816Z,16.77
2018-11-10T01:02:14.250Z,17.20
2018-11-10T01:04:42.714Z,15.63
2018-11-10T01:07:11.123Z,15.53
2018-11-10T01:09:39.642Z,16.53
2018-11-10T01:12:08.056Z,16.20
2018-11-10T01:14:36.676Z,17.13
2018-11-10T01:17:05.416Z,15.80
2018-11-10T01:19:33.885Z,16.63
2018-11-10T01:22:02.314Z,16.87
2018-11-10T01:24:30.715Z,17.67
2018-11-10T01:26:59.112Z,15.47
2018-11-10T01:29:27.497Z,15.67
2018-11-10T01:31:55.884Z,16.33
2018-11-10T01:34:24.325Z,16.07
2018-11-10T01:36:52.758Z,15.87
2018-11-10T01:39:21.235Z,15.57
2018-11-10T01:41:49.678Z,16.63
2018-11-10T01:44:18.114Z,15.80
2018-11-10T01:46:46.534Z,16.60
2018-11-10T01:49:15.324Z,15.53
2018-11-10T01:51:43.781Z,16.13
2018-11-10T01:54:12.222Z,15.43
2018-11-10T01:56:40.676Z,14.70
2018-11-10T01:59:09.129Z,15.50
2018-11-10T02:01:37.930Z,15.77
2018-11-10T02:04:06.510Z,15.07
2018-11-10T02:06:35.329Z,14.93
2018-11-10T02:09:04.570Z,15.17
2018-11-10T02:11:33.054Z,14.80
2018-11-10T02:14:01.420Z,15.20
2018-11-10T02:16:29.791Z,15.27
2018-11-10T02:18:58.212Z,15.50
2018-11-10T02:21:26.660Z,15.30
2018-11-10T02:23:55.142Z,14.67
2018-11-10T02:26:23.598Z,15.73
2018-11-10T02:28:52.026Z,14.70
2018-11-10T02:31:20.469Z,15.33
2018-11-10T02:33:48.882Z,14.83
2018-11-10T02:36:17.378Z,14.97
2018-11-10T02:38:46.212Z,14.87
2018-11-10T02:41:14.837Z,14.60
2018-11-10T02:43:43.332Z,14.20
2018-11-10T02:46:11.820Z,14.93
2018-11-10T02:48:40.286Z,15.63
2018-11-10T02:51:08.773Z,14.63
2018-11-10T02:53:37.260Z,14.70
2018-11-10T02:56:06.160Z,14.00
2018-11-10T02:58:34.614Z,14.77
2018-11-10T03:01:03.117Z,14.47
2018-11-10T03:03:31.546Z,14.57
2018-11-10T03:05:59.996Z,14.40
2018-11-10T03:08:28.420Z,14.23
2018-11-10T03:10:56.886Z,14.33
2018-11-10T03:13:25.452Z,14.77
2018-11-10T03:15:53.872Z,14.93
2018-11-10T03:18:22.306Z,13.93
2018-11-10T03:20:50.681Z,14.37
2018-11-10T03:23:19.091Z,15.37
2018-11-10T03:25:47.507Z,14.57
2018-11-10T03:28:15.918Z,14.63
2018-11-10T03:30:44.390Z,14.33
2018-11-10T03:33:12.806Z,15.13
2018-11-10T03:35:41.308Z,15.53
2018-11-10T03:38:09.679Z,15.67
2018-11-10T03:40:38.164Z,15.33
2018-11-10T03:43:06.686Z,14.50
2018-11-10T03:45:35.189Z,15.07
2018-11-10T03:48:03.963Z,16.03
2018-11-10T03:50:32.436Z,14.60
2018-11-10T03:53:00.836Z,15.37
2018-11-10T03:55:29.259Z,13.77
2018-11-10T03:57:57.606Z,14.10
2018-11-10T04:00:26.043Z,14.87
2018-11-10T04:02:54.503Z,15.07
2018-11-10T04:05:22.977Z,15.93
2018-11-10T04:07:51.384Z,14.57
2018-11-10T04:10:19.785Z,13.70
2018-11-10T04:12:48.214Z,13.93
2018-11-10T04:15:16.677Z,14.80
2018-11-10T04:17:45.083Z,14.23
2018-11-10T04:20:13.590Z,14.47
2018-11-10T04:22:41.953Z,13.97
2018-11-10T04:25:11.336Z,13.53
2018-11-10T04:27:39.877Z,14.50
2018-11-10T04:30:09.618Z,15.23
2018-11-10T04:32:38.218Z,13.23
2018-11-10T04:35:07.327Z,13.73
2018-11-10T04:37:35.925Z,13.77
2018-11-10T04:40:04.678Z,14.17
2018-11-10T04:42:33.111Z,13.87
2018-11-10T04:45:01.546Z,14.67
2018-11-10T04:47:29.952Z,14.17
2018-11-10T04:49:58.398Z,13.10
2018-11-10T04:52:26.930Z,13.33
2018-11-10T04:54:55.475Z,12.23
2018-11-10T04:57:23.962Z,12.90
2018-11-10T04:59:52.412Z,14.43
2018-11-10T05:02:20.824Z,14.93
2018-11-10T05:04:49.278Z,15.40
2018-11-10T05:07:17.703Z,15.80
2018-11-10T05:09:46.137Z,16.37
2018-11-10T05:12:14.552Z,15.60
2018-11-10T05:14:43.010Z,14.30
2018-11-10T05:17:11.441Z,14.33
2018-11-10T05:19:39.964Z,15.87
2018-11-10T05:22:08.340Z,15.37
2018-11-10T05:24:36.765Z,15.53
2018-11-10T05:27:05.553Z,15.40
2018-11-10T05:29:34.023Z,16.10
2018-11-10T05:32:02.482Z,15.07
2018-11-10T05:34:30.907Z,14.77
2018-11-10T05:36:59.383Z,13.73
2018-11-10T05:39:27.802Z,13.67
2018-11-10T05:41:56.260Z,12.77
2018-11-10T05:44:24.806Z,13.50
2018-11-10T05:46:53.347Z,13.27
2018-11-10T05:49:21.759Z,12.77
2018-11-10T05:51:50.132Z,13.53
2018-11-10T05:54:18.612Z,13.50
2018-11-10T05:56:47.028Z,13.87
2018-11-10T05:59:15.454Z,14.00
2018-11-10T06:01:43.894Z,13.03
2018-11-10T06:04:12.350Z,14.73
2018-11-10T06:06:40.800Z,14.57
2018-11-10T06:09:11.039Z,13.43
2018-11-10T06:11:40.283Z,12.93
2018-11-10T06:14:09.067Z,12.97
2018-11-10T06:16:37.513Z,12.33
2018-11-10T06:19:06.474Z,11.47
2018-11-10T06:21:34.946Z,12.50
2018-11-10T06:24:03.477Z,13.13
2018-11-10T06:26:31.949Z,14.00
2018-11-10T06:29:00.369Z,14.00
2018-11-10T06:31:28.792Z,14.27
2018-11-10T06:33:57.263Z,13.80
2018-11-10T06:36:25.893Z,13.00
2018-11-10T06:38:54.374Z,12.60
2018-11-10T06:41:23.231Z,12.07
2018-11-10T06:43:51.918Z,12.37
2018-11-10T06:46:20.366Z,11.60
2018-11-10T06:48:48.789Z,11.93
2018-11-10T06:51:17.298Z,12.00
2018-11-10T06:53:45.827Z,10.90
2018-11-10T06:56:14.230Z,12.10
2018-11-10T06:58:42.698Z,12.17
2018-11-10T07:01:11.169Z,11.67
2018-11-10T07:03:40.012Z,11.60
2018-11-10T07:06:08.544Z,11.70
2018-11-10T07:08:36.971Z,13.67
2018-11-10T07:11:05.824Z,11.60
2018-11-10T07:13:34.308Z,10.37
2018-11-10T07:16:02.812Z,11.13
2018-11-10T07:18:31.313Z,10.90
2018-11-10T07:20:59.764Z,10.50
2018-11-10T07:23:28.281Z,9.70
2018-11-10T07:25:56.814Z,11.27
2018-11-10T07:28:26.969Z,10.43
2018-11-10T07:30:55.467Z,10.33
2018-11-10T07:33:23.914Z,11.20
2018-11-10T07:35:52.387Z,10.87
2018-11-10T07:38:20.887Z,11.87
2018-11-10T07:40:49.361Z,10.73
2018-11-10T07:43:17.769Z,11.63
2018-11-10T07:45:47.174Z,11.97
2018-11-10T07:48:15.633Z,11.37
2018-11-10T07:50:44.186Z,12.13
2018-11-10T07:53:12.708Z,12.53
2018-11-10T07:55:41.239Z,11.87
2018-11-10T07:58:09.805Z,12.43
2018-11-10T08:00:38.249Z,11.40
2018-11-10T08:03:07.562Z,12.03
2018-11-10T08:05:36.044Z,11.70
2018-11-10T08:08:04.530Z,10.73
2018-11-10T08:10:33.023Z,11.57
2018-11-10T08:13:01.448Z,12.00
2018-11-10T08:15:29.927Z,11.27
2018-11-10T08:17:58.373Z,11.60
2018-11-10T08:20:26.776Z,11.07
2018-11-10T08:22:55.268Z,12.37
2018-11-10T08:25:23.750Z,11.00
2018-11-10T08:27:52.237Z,11.10
2018-11-10T08:30:20.759Z,11.17
2018-11-10T08:32:49.209Z,11.37
2018-11-10T08:35:17.714Z,11.37
2018-11-10T08:37:46.434Z,11.43
2018-11-10T08:40:16.689Z,10.20
2018-11-10T08:42:45.190Z,10.33
2018-11-10T08:45:15.003Z,10.60
2018-11-10T08:47:44.033Z,10.83
2018-11-10T08:50:13.765Z,10.87
2018-11-10T08:52:43.462Z,10.83
2018-11-10T08:55:12.805Z,10.20
2018-11-10T08:57:41.927Z,11.07
2018-11-10T09:00:11.187Z,10.27
2018-11-10T09:02:39.777Z,10.67
2018-11-10T09:05:09.890Z,9.63
2018-11-10T09:07:38.329Z,10.00
2018-11-10T09:10:10.408Z,9.80
2018-11-10T09:12:38.965Z,10.00
2018-11-10T09:15:09.688Z,9.47
2018-11-10T09:17:38.393Z,9.40
2018-11-10T09:20:10.510Z,10.27
2018-11-10T09:22:39.003Z,10.00
2018-11-10T09:25:10.419Z,10.47
2018-11-10T09:27:38.931Z,9.37
2018-11-10T09:30:08.460Z,11.40
2018-11-10T09:32:36.902Z,10.57
2018-11-10T09:35:06.185Z,10.77
2018-11-10T09:37:34.685Z,9.53
2018-11-10T09:40:03.219Z,9.40
2018-11-10T09:42:31.866Z,10.07
2018-11-10T09:45:00.306Z,8.80
2018-11-10T09:47:28.723Z,9.27
2018-11-10T09:49:57.187Z,8.30
2018-11-10T09:52:25.870Z,8.83
2018-11-10T09:54:54.349Z,6.73
2018-11-10T09:57:22.925Z,7.77
2018-11-10T09:59:51.432Z,7.27
2018-11-10T10:02:20.325Z,7.10
2018-11-10T10:04:48.564Z,7.53
2018-11-10T10:07:17.015Z,8.30
2018-11-10T10:09:45.409Z,8.53
2018-11-10T10:12:13.930Z,9.10
2018-11-10T10:14:42.324Z,8.67
2018-11-10T10:17:10.723Z,9.27
2018-11-10T10:19:39.410Z,8.17
2018-11-10T10:22:07.847Z,9.27
2018-11-10T10:24:36.285Z,8.80
2018-11-10T10:27:04.789Z,9.37
2018-11-10T10:29:33.230Z,9.33
2018-11-10T10:32:01.622Z,10.27
2018-11-10T10:34:30.416Z,10.50
2018-11-10T10:36:59.015Z,10.70
2018-11-10T10:39:27.569Z,10.93
2018-11-10T10:41:56.235Z,9.67
2018-11-10T10:44:24.681Z,10.53
2018-11-10T10:46:53.184Z,10.17
2018-11-10T10:49:21.641Z,10.37
2018-11-10T10:51:50.124Z,10.97
2018-11-10T10:54:18.572Z,10.43
2018-11-10T10:56:47.387Z,10.90
2018-11-10T10:59:16.047Z,11.33
2018-11-10T11:01:49.793Z,11.63
2018-11-10T11:04:23.530Z,11.60
2018-11-10T11:06:52.013Z,10.63
2018-11-10T11:09:20.449Z,12.23
2018-11-10T11:11:49.125Z,11.90
2018-11-10T11:14:17.528Z,11.70
2018-11-10T11:16:45.954Z,11.27
2018-11-10T11:19:14.393Z,12.27
2018-11-10T11:21:42.907Z,12.27
2018-11-10T11:24:11.310Z,12.40
2018-11-10T11:26:39.776Z,11.17
2018-11-10T11:29:08.288Z,12.13
2018-11-10T11:31:36.935Z,11.90
2018-11-10T11:34:05.722Z,11.97
2018-11-10T11:36:34.270Z,12.90
2018-11-10T11:39:02.758Z,11.83
2018-11-10T11:41:31.469Z,11.50
2018-11-10T11:43:59.819Z,10.83
2018-11-10T11:46:28.253Z,12.37
2018-11-10T11:48:56.738Z,12.23
2018-11-10T11:51:25.178Z,12.57
2018-11-10T11:53:53.633Z,12.57
2018-11-10T11:56:22.041Z,13.47
2018-11-10T11:58:50.490Z,13.47
2018-11-10T12:01:19.080Z,13.27
2018-11-10T12:03:47.512Z,12.70
2018-11-10T12:06:15.901Z,12.87
2018-11-10T12:08:44.424Z,12.07
2018-11-10T12:11:12.861Z,12.17
2018-11-10T12:13:41.291Z,11.30
2018-11-10T12:16:10.240Z,11.50
2018-11-10T12:18:38.667Z,12.03
2018-11-10T12:21:07.184Z,11.53
2018-11-10T12:23:35.738Z,11.30
2018-11-10T12:26:04.192Z,11.87
2018-11-10T12:28:32.696Z,10.97
2018-11-10T12:31:01.161Z,11.10
2018-11-10T12:33:29.579Z,10.90
2018-11-10T12:35:58.044Z,9.83
2018-11-10T12:38:26.537Z,10.17
2018-11-10T12:40:54.959Z,10.90
2018-11-10T12:43:23.386Z,11.40
2018-11-10T12:45:51.856Z,10.57
2018-11-10T12:48:20.335Z,11.00
2018-11-10T12:50:49.361Z,10.70
2018-11-10T12:53:17.811Z,11.70
2018-11-10T12:55:46.164Z,11.00
2018-11-10T12:58:14.597Z,12.50
2018-11-10T13:00:42.991Z,11.77
2018-11-10T13:03:11.396Z,11.60
2018-11-10T13:05:39.840Z,12.33
2018-11-10T13:08:08.369Z,11.40
2018-11-10T13:10:36.939Z,11.33
2018-11-10T13:13:05.866Z,10.63
2018-11-10T13:15:34.314Z,11.77
2018-11-10T13:18:02.801Z,11.03
2018-11-10T13:20:31.358Z,10.83
2018-11-10T13:22:59.864Z,10.83
2018-11-10T13:25:28.362Z,11.67
2018-11-10T13:27:56.834Z,10.97
2018-11-10T13:30:25.223Z,11.97
2018-11-10T13:32:53.653Z,11.77
2018-11-10T13:35:22.131Z,11.37
2018-11-10T13:37:50.676Z,11.23
2018-11-10T13:40:19.236Z,11.17
2018-11-10T13:42:47.604Z,12.10
2018-11-10T13:45:16.039Z,11.13
2018-11-10T13:47:44.491Z,11.83
2018-11-10T13:50:13.103Z,12.07
2018-11-10T13:52:42.326Z,12.37
2018-11-10T13:55:11.032Z,12.30
2018-11-10T13:57:39.781Z,12.27
2018-11-10T14:00:13.160Z,12.03
2018-11-10T14:02:41.843Z,11.60
2018-11-10T14:05:10.671Z,11.20
2018-11-10T14:07:39.062Z,10.93
2018-11-10T14:10:09.306Z,15.90
2018-11-10T14:12:37.820Z,13.20
2018-11-10T14:15:06.510Z,12.67
2018-11-10T14:17:34.939Z,12.20
2018-11-10T14:20:03.362Z,12.00
2018-11-10T14:22:31.702Z,12.40
2018-11-10T14:25:00.092Z,12.47
2018-11-10T14:27:28.541Z,12.13
2018-11-10T14:29:57.018Z,11.53
2018-11-10T14:32:25.477Z,11.83
2018-11-10T14:34:53.891Z,11.73
2018-11-10T14:37:22.298Z,12.03
2018-11-10T14:39:50.733Z,12.00
2018-11-10T14:42:19.201Z,12.10
2018-11-10T14:44:47.654Z,11.30
2018-11-10T14:47:16.138Z,12.43
2018-11-10T14:49:44.504Z,11.53
2018-11-10T14:52:12.982Z,11.67
2018-11-10T14:54:41.429Z,10.63
2018-11-10T14:57:09.904Z,11.07
2018-11-10T14:59:38.348Z,11.17
2018-11-10T15:02:06.775Z,11.33
2018-11-10T15:04:35.282Z,11.20
2018-11-10T15:07:03.779Z,10.70
2018-11-10T15:09:32.194Z,10.97
2018-11-10T15:12:00.819Z,10.30
2018-11-10T15:14:29.270Z,11.20
2018-11-10T15:16:57.722Z,10.07
2018-11-10T15:19:26.103Z,10.13
2018-11-10T15:21:54.550Z,10.00
2018-11-10T15:24:22.942Z,9.97
2018-11-10T15:26:51.601Z,9.77
2018-11-10T15:29:20.072Z,10.20
2018-11-10T15:31:48.472Z,10.20
2018-11-10T15:34:16.901Z,10.73
2018-11-10T15:36:45.330Z,10.10
2018-11-10T15:39:13.813Z,9.70
2018-11-10T15:41:42.250Z,8.43
2018-11-10T15:44:11.042Z,9.03
2018-11-10T15:46:39.416Z,13.50
2018-11-10T15:49:07.900Z,8.47
2018-11-10T15:51:36.340Z,8.10
2018-11-10T15:54:05.149Z,9.63
2018-11-10T15:56:33.612Z,9.47
2018-11-10T15:59:02.061Z,8.77
2018-11-10T16:01:30.552Z,8.47
2018-11-10T16:03:59.023Z,8.23
2018-11-10T16:06:27.448Z,7.50
2018-11-10T16:08:55.833Z,6.90
2018-11-10T16:11:24.480Z,7.20
2018-11-10T16:13:53.235Z,7.80
2018-11-10T16:16:21.701Z,8.63
2018-11-10T16:18:50.548Z,8.73
2018-11-10T16:21:19.549Z,8.47
2018-11-10T16:23:48.003Z,7.10
2018-11-10T16:26:16.435Z,6.60
2018-11-10T16:28:44.850Z,7.33
2018-11-10T16:31:13.447Z,7.80
2018-11-10T16:33:41.835Z,7.30
2018-11-10T16:36:10.299Z,7.83
2018-11-10T16:38:38.769Z,6.93
2018-11-10T16:41:07.223Z,7.30
2018-11-10T16:43:35.626Z,8.30
2018-11-10T16:46:04.172Z,7.00
2018-11-10T16:48:32.635Z,7.83
2018-11-10T16:51:01.112Z,7.13
2018-11-10T16:53:29.590Z,7.50
2018-11-10T16:55:58.020Z,7.10
2018-11-10T16:58:26.488Z,7.10
2018-11-10T17:00:54.898Z,7.40
2018-11-10T17:03:23.394Z,7.40
2018-11-10T17:05:51.892Z,6.67
2018-11-10T17:08:20.532Z,6.97
2018-11-10T17:10:49.750Z,6.87
2018-11-10T17:13:18.199Z,6.10
2018-11-10T17:15:46.811Z,6.50
2018-11-10T17:18:15.162Z,6.13
2018-11-10T17:20:43.647Z,6.63
2018-11-10T17:23:12.236Z,7.07
2018-11-10T17:25:42.335Z,6.40
2018-11-10T17:28:10.827Z,6.60
2018-11-10T17:30:39.380Z,6.33
2018-11-10T17:33:07.791Z,7.07
2018-11-10T17:35:36.405Z,9.43
2018-11-10T17:38:04.991Z,10.00
2018-11-10T17:40:33.553Z,8.53
2018-11-10T17:43:02.008Z,7.40
2018-11-10T17:45:30.422Z,10.50
2018-11-10T17:47:58.817Z,9.90
2018-11-10T17:50:27.259Z,8.90
2018-11-10T17:52:55.703Z,7.90
2018-11-10T17:55:24.128Z,7.80
2018-11-10T17:57:52.637Z,8.70
2018-11-10T18:00:21.234Z,8.80
2018-11-10T18:02:49.644Z,8.53
2018-11-10T18:05:18.136Z,6.80
2018-11-10T18:07:46.603Z,6.47
2018-11-10T18:10:16.372Z,7.03
2018-11-10T18:12:45.751Z,6.83
2018-11-10T18:15:14.795Z,6.43
2018-11-10T18:17:43.746Z,7.10
2018-11-10T18:20:13.621Z,6.83
2018-11-10T18:22:42.894Z,7.27
2018-11-10T18:25:11.407Z,6.73
2018-11-10T18:27:40.037Z,7.57
2018-11-10T18:30:10.596Z,7.20
2018-11-10T18:32:39.086Z,6.97
2018-11-10T18:35:08.350Z,7.57
2018-11-10T18:37:36.806Z,7.13
2018-11-10T18:40:05.453Z,7.20
2018-11-10T18:42:34.013Z,7.60
2018-11-10T18:45:02.468Z,7.57
2018-11-10T18:47:30.931Z,8.10
2018-11-10T18:49:59.381Z,8.50
2018-11-10T18:52:27.848Z,7.17
2018-11-10T18:54:56.397Z,7.53
2018-11-10T18:57:31.711Z,8.10
2018-11-10T19:00:00.196Z,8.87
2018-11-10T19:02:28.652Z,9.33
2018-11-10T19:04:57.507Z,8.80
2018-11-10T19:07:25.969Z,9.00
2018-11-10T19:09:54.472Z,9.57
2018-11-10T19:12:22.902Z,9.20
2018-11-10T19:14:51.352Z,9.97
2018-11-10T19:17:19.776Z,9.87
2018-11-10T19:19:48.184Z,9.40
2018-11-10T19:22:16.624Z,8.80
2018-11-10T19:24:44.983Z,8.67
2018-11-10T19:27:13.506Z,8.97
2018-11-10T19:29:41.952Z,9.77
2018-11-10T19:32:10.366Z,9.20
2018-11-10T19:34:38.994Z,9.50
2018-11-10T19:37:07.442Z,9.47
2018-11-10T19:39:35.808Z,10.37
2018-11-10T19:42:04.380Z,9.90
2018-11-10T19:44:32.896Z,10.53
2018-11-10T19:47:01.485Z,9.60
2018-11-10T19:49:29.933Z,9.60
2018-11-10T19:51:58.451Z,10.20
2018-11-10T19:54:27.031Z,11.17
2018-11-10T19:56:55.522Z,9.93
2018-11-10T19:59:23.969Z,9.80
2018-11-10T20:01:52.409Z,10.20
2018-11-10T20:04:20.860Z,9.73
2018-11-10T20:06:49.295Z,9.77
2018-11-10T20:09:17.895Z,9.50
2018-11-10T20:11:46.322Z,9.57
2018-11-10T20:14:14.806Z,9.70
2018-11-10T20:16:43.420Z,9.93
2018-11-10T20:19:11.908Z,9.67
2018-11-10T20:21:40.380Z,9.90
2018-11-10T20:24:08.846Z,9.27
2018-11-10T20:26:37.223Z,9.80
2018-11-10T20:29:06.036Z,9.47
2018-11-10T20:31:34.475Z,9.80
2018-11-10T20:34:03.032Z,11.20
2018-11-10T20:36:31.492Z,10.37
2018-11-10T20:38:59.960Z,10.90
2018-11-10T20:41:28.566Z,9.90
2018-11-10T20:43:57.019Z,10.17
2018-11-10T20:46:25.486Z,9.93
2018-11-10T20:48:53.958Z,10.30
2018-11-10T20:51:22.453Z,13.30
2018-11-10T20:53:50.870Z,10.37
2018-11-10T20:56:19.294Z,9.93
2018-11-10T20:58:47.726Z,9.53
2018-11-10T21:01:16.140Z,9.97
2018-11-10T21:03:44.624Z,10.07
2018-11-10T21:06:13.096Z,10.60
2018-11-10T21:08:41.588Z,10.47
2018-11-10T21:11:10.042Z,10.50
2018-11-10T21:13:38.461Z,10.47
2018-11-10T21:16:06.888Z,10.83
2018-11-10T21:18:35.294Z,11.57
2018-11-10T21:21:03.698Z,12.40
2018-11-10T21:23:32.177Z,10.70
2018-11-10T21:26:00.777Z,11.33
2018-11-10T21:28:29.273Z,10.63
2018-11-10T21:30:57.886Z,10.47
2018-11-10T21:33:26.446Z,10.73
2018-11-10T21:35:55.032Z,11.20
2018-11-10T21:38:23.510Z,12.57
2018-11-10T21:40:51.904Z,12.23
2018-11-10T21:43:20.338Z,12.97
2018-11-10T21:45:48.798Z,13.20
2018-11-10T21:48:17.246Z,13.43
2018-11-10T21:50:45.625Z,14.77
2018-11-10T21:53:14.040Z,14.33
2018-11-10T21:55:42.455Z,15.60
2018-11-10T21:58:10.886Z,14.93
2018-11-10T22:00:39.515Z,14.87
2018-11-10T22:03:07.988Z,15.23
2018-11-10T22:05:36.505Z,17.30
2018-11-10T22:08:05.761Z,16.13
2018-11-10T22:10:34.188Z,15.70
2018-11-10T22:13:02.590Z,15.10
2018-11-10T22:15:31.037Z,16.23
2018-11-10T22:17:59.461Z,14.50
2018-11-10T22:20:27.838Z,14.43
2018-11-10T22:22:56.322Z,18.13
2018-11-10T22:25:24.841Z,15.50
2018-11-10T22:27:53.987Z,15.17
2018-11-10T22:30:22.992Z,16.93
2018-11-10T22:32:51.531Z,15.20
2018-11-10T22:35:20.099Z,15.33
2018-11-10T22:37:48.503Z,15.00
2018-11-10T22:40:18.413Z,14.97
2018-11-10T22:42:47.079Z,15.13
2018-11-10T22:45:16.724Z,15.90
2018-11-10T22:47:45.188Z,16.67
2018-11-10T22:50:15.920Z,18.13
2018-11-10T22:52:44.553Z,15.60
2018-11-10T22:55:13.038Z,17.57
2018-11-10T22:57:41.633Z,17.07
2018-11-10T23:00:15.136Z,17.63
2018-11-10T23:02:45.203Z,18.73
2018-11-10T23:05:13.640Z,18.83
2018-11-10T23:07:42.067Z,17.20
2018-11-10T23:10:10.936Z,16.13
2018-11-10T23:12:39.343Z,15.60
2018-11-10T23:15:07.889Z,15.50
2018-11-10T23:17:36.388Z,14.77
2018-11-10T23:20:05.561Z,14.97
2018-11-10T23:22:33.982Z,13.77
2018-11-10T23:25:02.474Z,15.97
2018-11-10T23:27:30.905Z,16.57
2018-11-10T23:29:59.448Z,15.97
2018-11-10T23:32:27.886Z,19.20
2018-11-10T23:34:56.382Z,16.83
2018-11-10T23:37:24.995Z,16.73
2018-11-10T23:39:53.368Z,15.63
2018-11-10T23:42:21.830Z,15.97
2018-11-10T23:44:50.350Z,14.73
2018-11-10T23:47:18.777Z,16.43
2018-11-10T23:49:47.226Z,15.07
2018-11-10T23:52:15.705Z,15.10
2018-11-10T23:54:44.205Z,16.00
2018-11-10T23:57:12.600Z,17.13
2018-11-10T23:59:41.049Z,15.20
